Time;durP1;ratioP1;P1;durP2;ratioP2;P2;SDS_P1;SDS_P2;PMS_P1;PMS_P2;Temp;Humidity;BMP_temperature;BMP_pressure;BME280_temperature;BME280_humidity;BME280_pressure;Samples;Min_cycle;Max_cycle;Signal;HPM_P1;HPM_P2
2023/02/02 00:01:19;;;;;;;3.33;2.00;;;;;;;8.04;93.48;101676.88;5011328;28;20535;-44
2023/02/02 00:03:49;;;;;;;7.03;2.22;;;;;;;8.05;93.54;101684.03;5009691;28;20057;-44
2023/02/02 00:06:20;;;;;;;4.00;1.48;;;;;;;8.05;93.60;101683.22;5009735;28;20054;-44
2023/02/02 00:08:48;;;;;;;3.63;2.25;;;;;;;8.06;93.75;101690.34;5009999;28;20135;-44
2023/02/02 00:11:16;;;;;;;3.45;1.65;;;;;;;8.08;93.92;101685.34;5010347;28;20300;-43
2023/02/02 00:13:43;;;;;;;4.80;1.48;;;;;;;8.09;93.78;101678.72;5009490;28;20459;-47
2023/02/02 00:16:25;;;;;;;6.10;2.00;;;;;;;8.11;94.05;101682.81;5009562;28;20225;-44
2023/02/02 00:18:53;;;;;;;11.13;3.05;;;;;;;8.12;93.96;101686.38;5009231;28;20097;-45
2023/02/02 00:21:20;;;;;;;1.55;1.45;;;;;;;8.12;94.20;101672.59;5009706;28;20573;-44
2023/02/02 00:23:47;;;;;;;3.88;1.60;;;;;;;8.12;94.25;101678.13;5009359;28;20120;-44
2023/02/02 00:26:15;;;;;;;7.32;1.77;;;;;;;8.14;94.29;101659.31;5009511;28;20034;-46
2023/02/02 00:28:42;;;;;;;5.45;1.50;;;;;;;8.15;94.41;101685.78;5008768;28;20088;-49
2023/02/02 00:31:09;;;;;;;6.15;1.88;;;;;;;8.18;94.49;101663.91;5008323;28;20050;-44
2023/02/02 00:33:36;;;;;;;2.03;1.50;;;;;;;8.19;94.48;101673.00;5012325;28;20111;-45
2023/02/02 00:36:03;;;;;;;3.10;1.60;;;;;;;8.21;94.51;101682.59;5009678;28;20042;-43
2023/02/02 00:38:31;;;;;;;5.05;1.95;;;;;;;8.23;94.63;101674.03;5009081;28;20495;-44
2023/02/02 00:40:57;;;;;;;7.90;1.83;;;;;;;8.25;94.67;101671.78;5009791;28;20057;-44
2023/02/02 00:43:24;;;;;;;4.13;1.67;;;;;;;8.26;94.73;101674.22;5007653;28;20060;-47
2023/02/02 00:45:51;;;;;;;6.88;1.92;;;;;;;8.28;94.85;101672.03;5001418;28;20165;-50
2023/02/02 00:48:17;;;;;;;3.92;2.47;;;;;;;8.29;94.95;101670.88;5005083;28;20117;-48
2023/02/02 00:50:44;;;;;;;8.55;2.28;;;;;;;8.30;95.06;101668.94;5006394;28;20060;-44
2023/02/02 00:53:11;;;;;;;2.72;1.77;;;;;;;8.31;95.06;101670.59;5007187;28;20048;-46
2023/02/02 00:55:38;;;;;;;5.55;2.50;;;;;;;8.33;95.28;101673.84;5006507;28;20052;-43
2023/02/02 00:58:04;;;;;;;2.95;1.55;;;;;;;8.34;95.16;101672.75;5004758;28;20400;-44
2023/02/02 01:00:31;;;;;;;3.65;2.00;;;;;;;8.33;95.42;101657.28;4998640;28;20042;-45
2023/02/02 01:03:03;;;;;;;3.35;1.75;;;;;;;8.33;95.45;101663.63;5006385;28;20052;-44
2023/02/02 01:05:31;;;;;;;5.57;1.52;;;;;;;8.36;95.46;101664.97;5005682;28;20432;-45
2023/02/02 01:07:57;;;;;;;3.25;2.50;;;;;;;8.37;95.33;101658.31;5006925;28;20082;-44
2023/02/02 01:10:24;;;;;;;2.55;1.77;;;;;;;8.37;95.66;101664.63;5007691;28;20503;-44
2023/02/02 01:12:51;;;;;;;3.47;1.73;;;;;;;8.39;95.67;101672.63;5005771;28;20518;-44
2023/02/02 01:15:18;;;;;;;4.38;1.88;;;;;;;8.40;95.62;101679.75;5005764;28;20078;-44
2023/02/02 01:17:45;;;;;;;3.72;1.50;;;;;;;8.40;95.68;101672.31;4999974;28;20576;-44
2023/02/02 01:20:18;;;;;;;2.97;1.35;;;;;;;8.41;95.69;101664.84;5002416;28;20050;-44
2023/02/02 01:22:45;;;;;;;2.30;1.55;;;;;;;8.41;95.92;101662.91;5008468;28;20096;-43
2023/02/02 01:25:12;;;;;;;3.70;1.60;;;;;;;8.43;95.89;101665.34;5012001;28;20041;-50
2023/02/02 01:27:39;;;;;;;1.73;1.38;;;;;;;8.43;95.96;101657.91;5023002;28;20049;-44
2023/02/02 01:30:07;;;;;;;3.97;1.67;;;;;;;8.45;95.96;101654.81;5010312;28;20524;-46
2023/02/02 01:32:33;;;;;;;2.53;1.50;;;;;;;8.46;96.15;101657.28;5012863;28;20049;-44
2023/02/02 01:35:00;;;;;;;3.95;1.60;;;;;;;8.46;96.22;101659.22;5028329;28;20045;-45
2023/02/02 01:37:27;;;;;;;1.83;1.40;;;;;;;8.47;96.02;101658.09;5013404;28;20053;-44
2023/02/02 01:39:54;;;;;;;2.20;1.80;;;;;;;8.48;96.10;101659.72;5012386;28;20050;-45
2023/02/02 01:42:22;;;;;;;3.38;1.80;;;;;;;8.48;96.66;101651.44;5012549;28;20038;-45
2023/02/02 01:44:51;;;;;;;2.03;1.80;;;;;;;8.48;96.32;101659.72;5013203;28;20406;-44
2023/02/02 01:47:22;;;;;;;2.92;1.73;;;;;;;8.49;96.49;101647.56;5013104;28;20088;-44
2023/02/02 01:49:50;;;;;;;3.85;1.83;;;;;;;8.49;96.35;101650.31;5013019;28;20156;-44
2023/02/02 01:52:23;;;;;;;4.45;2.22;;;;;;;8.50;96.54;101657.47;5011461;28;20128;-44
2023/02/02 01:54:54;;;;;;;1.77;1.35;;;;;;;8.48;96.51;101655.03;5012028;28;20077;-44
2023/02/02 01:57:33;;;;;;;4.82;1.77;;;;;;;8.49;96.62;101650.31;5010444;28;20055;-44
2023/02/02 02:00:03;;;;;;;3.90;1.67;;;;;;;8.50;96.75;101649.19;5005310;28;20546;-44
2023/02/02 02:02:31;;;;;;;3.42;1.80;;;;;;;8.50;96.77;101641.72;5004536;28;20508;-44
2023/02/02 02:05:01;;;;;;;2.40;1.83;;;;;;;8.50;96.79;101647.25;5009245;28;20054;-46
2023/02/02 02:07:28;;;;;;;5.72;2.00;;;;;;;8.52;97.05;101638.69;5011930;28;20385;-44
2023/02/02 02:09:55;;;;;;;3.28;1.60;;;;;;;8.51;96.99;101632.34;5005205;28;20057;-45
2023/02/02 02:12:22;;;;;;;1.83;1.73;;;;;;;8.52;97.00;101633.94;5009911;28;20438;-43
2023/02/02 02:17:43;;;;;;;3.45;1.50;;;;;;;8.54;97.24;101642.75;5009956;28;20511;-44
2023/02/02 02:26:33;;;;;;;5.47;1.90;;;;;;;8.54;97.47;101653.81;5002896;28;20052;-44
2023/02/02 02:29:24;;;;;;;4.32;1.88;;;;;;;8.54;97.72;101634.47;5011682;28;20380;-44
2023/02/02 02:32:18;;;;;;;3.40;1.88;;;;;;;8.53;97.67;101624.56;5011551;28;20060;-44
2023/02/02 02:34:52;;;;;;;3.15;2.47;;;;;;;8.54;97.92;101619.84;5022202;28;20049;-45
2023/02/02 02:37:44;;;;;;;4.25;2.55;;;;;;;8.52;98.08;101622.91;5004021;28;20050;-45
2023/02/02 02:40:10;;;;;;;1.83;1.65;;;;;;;8.53;97.99;101612.69;5008226;28;20060;-44
2023/02/02 02:42:44;;;;;;;3.17;1.80;;;;;;;8.53;98.25;101612.69;5010665;28;20531;-44
2023/02/02 02:45:12;;;;;;;2.60;1.80;;;;;;;8.52;98.33;101606.34;5011717;28;20093;-44
2023/02/02 02:47:41;;;;;;;4.53;1.83;;;;;;;8.51;98.33;101603.91;5011853;28;20126;-44
2023/02/02 02:50:08;;;;;;;5.72;2.58;;;;;;;8.52;98.64;101617.38;5008290;28;20515;-44
2023/02/02 02:52:36;;;;;;;3.60;2.47;;;;;;;8.52;98.71;101611.06;5007563;28;20045;-44
2023/02/02 02:55:05;;;;;;;6.13;1.95;;;;;;;8.51;98.83;101601.97;5008652;28;20136;-44
2023/02/02 02:58:20;;;;;;;2.58;1.75;;;;;;;8.52;99.11;101600.03;5009941;28;20042;-43
2023/02/02 03:01:00;;;;;;;5.00;1.90;;;;;;;8.52;99.17;101608.31;5033428;22;20149;-44
2023/02/02 03:03:40;;;;;;;4.43;2.05;;;;;;;8.52;99.32;101613.84;5006409;28;20050;-44
2023/02/02 03:06:34;;;;;;;2.63;1.63;;;;;;;8.52;99.35;101611.88;5005602;28;20163;-44
2023/02/02 03:09:11;;;;;;;4.07;1.65;;;;;;;8.53;99.41;101602.47;5000485;28;20041;-44
2023/02/02 03:11:39;;;;;;;5.38;2.15;;;;;;;8.53;99.50;101601.66;5010466;28;20077;-44
2023/02/02 03:14:08;;;;;;;5.38;2.22;;;;;;;8.52;99.65;101603.59;5004958;28;20054;-48
2023/02/02 03:16:36;;;;;;;2.78;1.88;;;;;;;8.53;99.83;101602.47;5003406;28;20088;-43
2023/02/02 03:19:04;;;;;;;7.70;1.95;;;;;;;8.52;99.91;101597.28;4991459;28;20084;-44
2023/02/02 03:21:32;;;;;;;6.70;1.45;;;;;;;8.51;100.00;101596.47;4996036;28;20501;-44
2023/02/02 03:23:59;;;;;;;3.40;1.48;;;;;;;8.52;99.99;101602.81;5011443;28;20413;-44
2023/02/02 03:26:26;;;;;;;6.22;2.00;;;;;;;8.53;100.00;101607.16;5005982;28;20468;-44
2023/02/02 03:28:56;;;;;;;6.18;1.05;;;;;;;8.53;100.00;101608.00;5010369;28;20048;-47
2023/02/02 03:31:25;;;;;;;6.75;1.73;;;;;;;8.55;100.00;101610.47;5010467;28;20132;-44
2023/02/02 03:33:53;;;;;;;2.22;1.70;;;;;;;8.54;100.00;101608.81;5017746;28;20056;-44
2023/02/02 03:36:20;;;;;;;2.42;1.52;;;;;;;8.53;100.00;101608.00;5014714;28;20052;-44
2023/02/02 03:38:47;;;;;;;2.22;1.40;;;;;;;8.53;100.00;101615.44;5021300;28;20056;-44
2023/02/02 03:41:14;;;;;;;5.78;1.92;;;;;;;8.51;100.00;101613.00;5010739;28;20482;-44
2023/02/02 03:43:40;;;;;;;4.07;2.20;;;;;;;8.50;100.00;101613.31;5010453;28;20488;-44
2023/02/02 03:46:07;;;;;;;2.28;1.40;;;;;;;8.47;100.00;101614.75;5010209;28;20076;-48
2023/02/02 03:48:38;;;;;;;8.75;1.63;;;;;;;8.48;100.00;101615.56;5010227;28;20511;-44
2023/02/02 03:51:13;;;;;;;3.28;1.55;;;;;;;8.47;100.00;101613.97;5006850;28;20073;-44
2023/02/02 03:53:43;;;;;;;7.78;2.17;;;;;;;8.46;100.00;101613.13;5003121;28;20715;-44
2023/02/02 03:56:10;;;;;;;1.98;1.13;;;;;;;8.45;100.00;101613.44;5009220;28;20495;-44
2023/02/02 03:58:37;;;;;;;3.55;1.70;;;;;;;8.46;100.00;101623.34;5009900;28;20132;-49
2023/02/02 04:01:06;;;;;;;2.70;1.08;;;;;;;8.46;100.00;101620.59;5003147;28;20565;-44
2023/02/02 04:03:33;;;;;;;5.95;1.45;;;;;;;8.46;100.00;101620.59;5007326;28;20046;-43
2023/02/02 04:06:00;;;;;;;2.35;1.17;;;;;;;8.46;100.00;101615.06;5007520;28;20145;-44
2023/02/02 04:08:27;;;;;;;6.93;2.22;;;;;;;8.46;100.00;101620.59;5008320;28;20054;-48
2023/02/02 04:10:54;;;;;;;2.05;1.13;;;;;;;8.44;100.00;101620.09;5007160;28;20072;-47
2023/02/02 04:13:20;;;;;;;1.58;1.20;;;;;;;8.45;100.00;101616.19;5006552;28;20081;-45
2023/02/02 04:15:47;;;;;;;1.55;1.23;;;;;;;8.46;100.00;101612.31;4996433;28;20448;-51
2023/02/02 04:18:14;;;;;;;0.75;0.75;;;;;;;8.47;100.00;101613.97;5008583;28;20565;-44
2023/02/02 04:20:41;;;;;;;1.63;0.77;;;;;;;8.47;100.00;101613.97;5008714;28;20148;-44
2023/02/02 04:23:07;;;;;;;2.72;0.98;;;;;;;8.49;100.00;101612.53;5006291;28;20140;-44
2023/02/02 04:25:34;;;;;;;3.40;0.63;;;;;;;8.50;100.00;101613.31;5007547;28;20081;-44
2023/02/02 04:28:01;;;;;;;4.60;0.68;;;;;;;8.51;100.00;101613.00;5009271;28;20044;-44
2023/02/02 04:30:27;;;;;;;5.03;0.77;;;;;;;8.53;100.00;101612.69;5005000;28;20132;-44
2023/02/02 04:32:54;;;;;;;3.83;0.80;;;;;;;8.54;100.00;101615.16;5005129;28;20077;-44
2023/02/02 04:35:21;;;;;;;1.20;0.60;;;;;;;8.55;100.00;101611.25;5011353;28;20491;-44
2023/02/02 04:37:48;;;;;;;3.22;0.63;;;;;;;8.55;100.00;101610.47;5009681;28;20788;-44
2023/02/02 04:40:15;;;;;;;2.72;0.70;;;;;;;8.55;100.00;101618.75;5007273;28;20141;-50
2023/02/02 04:42:44;;;;;;;6.35;0.88;;;;;;;8.53;100.00;101609.94;5005456;28;20045;-45
2023/02/02 04:45:12;;;;;;;1.63;0.60;;;;;;;8.53;100.00;101612.69;5007636;28;20129;-45
2023/02/02 04:47:38;;;;;;;2.00;0.95;;;;;;;8.51;100.00;101601.16;5003840;28;20128;-43
2023/02/02 04:50:06;;;;;;;3.25;0.93;;;;;;;8.52;100.00;101602.81;5006222;28;20093;-44
2023/02/02 04:52:34;;;;;;;1.90;1.27;;;;;;;8.49;100.00;101598.72;5004951;28;20474;-45
2023/02/02 04:55:00;;;;;;;5.30;3.53;;;;;;;8.49;100.00;101604.25;5006685;28;20049;-48
2023/02/02 04:57:27;;;;;;;3.63;1.23;;;;;;;8.49;100.00;101601.47;5008753;28;20046;-44
2023/02/02 04:59:54;;;;;;;3.35;1.10;;;;;;;8.49;100.00;101600.66;5003030;28;20050;-44
2023/02/02 05:02:20;;;;;;;3.20;1.00;;;;;;;8.50;100.00;101610.56;5004157;28;20049;-45
2023/02/02 05:04:47;;;;;;;3.65;1.02;;;;;;;8.50;100.00;101614.13;5005069;28;20136;-44
2023/02/02 05:07:14;;;;;;;3.55;1.05;;;;;;;8.52;100.00;101616.59;5006913;28;20410;-44
2023/02/02 05:09:41;;;;;;;1.95;0.70;;;;;;;8.52;100.00;101613.84;5002901;28;20052;-45
2023/02/02 05:12:07;;;;;;;0.98;0.73;;;;;;;8.53;100.00;101615.44;5005104;28;20045;-46
2023/02/02 05:14:34;;;;;;;3.17;0.88;;;;;;;8.53;100.00;101618.22;5007842;28;20144;-44
2023/02/02 05:17:01;;;;;;;4.75;1.13;;;;;;;8.54;100.00;101630.91;5003259;28;20408;-47
2023/02/02 05:19:27;;;;;;;3.35;0.65;;;;;;;8.54;100.00;101622.63;5017044;28;20053;-44
2023/02/02 05:21:54;;;;;;;1.10;0.60;;;;;;;8.53;100.00;101623.72;5005755;28;20042;-45
2023/02/02 05:24:21;;;;;;;3.90;0.70;;;;;;;8.53;100.00;101615.44;5006093;28;20407;-44
2023/02/02 05:26:48;;;;;;;4.53;0.95;;;;;;;8.51;100.00;101620.47;5006609;28;20046;-50
2023/02/02 05:29:14;;;;;;;7.13;0.90;;;;;;;8.48;100.00;101616.38;5005896;28;20046;-44
2023/02/02 05:31:41;;;;;;;5.70;1.00;;;;;;;8.48;100.00;101615.56;5000244;28;20069;-44
2023/02/02 05:34:10;;;;;;;3.80;1.13;;;;;;;8.48;100.00;101607.28;5007463;28;20506;-44
2023/02/02 05:36:37;;;;;;;5.85;0.45;;;;;;;8.48;100.00;101610.88;5007641;28;20138;-44
2023/02/02 05:39:04;;;;;;;4.40;0.52;;;;;;;8.48;100.00;101604.53;5005589;28;20084;-45
2023/02/02 05:41:31;;;;;;;3.45;0.60;;;;;;;8.47;100.00;101603.72;5007231;28;20045;-44
2023/02/02 05:43:58;;;;;;;0.80;0.40;;;;;;;8.48;100.00;101599.00;5003650;28;20074;-44
2023/02/02 05:46:25;;;;;;;1.80;0.90;;;;;;;8.49;100.00;101606.19;5004034;28;20411;-44
2023/02/02 05:48:52;;;;;;;0.85;0.35;;;;;;;8.51;100.00;101593.69;4998260;28;20403;-43
2023/02/02 05:51:22;;;;;;;2.15;0.40;;;;;;;8.51;100.00;101588.19;5003497;28;20049;-44
2023/02/02 05:53:49;;;;;;;0.85;0.28;;;;;;;8.51;100.00;101593.69;4997917;28;20068;-46
2023/02/02 05:56:16;;;;;;;3.78;0.82;;;;;;;8.53;100.00;101596.13;5006377;28;20081;-43
2023/02/02 05:58:46;;;;;;;1.48;0.50;;;;;;;8.54;100.00;101595.00;5008108;28;20046;-44
2023/02/02 06:01:29;;;;;;;5.63;0.65;;;;;;;8.53;100.00;101602.47;4993988;28;20060;-43
2023/02/02 06:03:55;;;;;;;1.63;0.80;;;;;;;8.54;100.00;101603.28;5003448;28;20400;-45
2023/02/02 06:06:22;;;;;;;2.97;0.95;;;;;;;8.53;100.00;101596.13;5004028;28;20038;-42
2023/02/02 06:08:49;;;;;;;2.85;0.68;;;;;;;8.52;100.00;101600.03;5003407;28;20173;-43
2023/02/02 06:11:17;;;;;;;7.15;0.70;;;;;;;8.50;100.00;101588.47;5005886;28;20080;-43
2023/02/02 06:13:44;;;;;;;4.88;1.65;;;;;;;8.48;100.00;101579.69;5006110;28;20042;-43
2023/02/02 06:16:11;;;;;;;3.33;0.73;;;;;;;8.46;100.00;101581.94;5008227;28;20104;-42
2023/02/02 06:18:38;;;;;;;2.03;0.47;;;;;;;8.44;100.00;101598.84;5002078;28;20038;-50
2023/02/02 06:21:05;;;;;;;4.88;0.52;;;;;;;8.45;100.00;101585.81;5005115;28;20100;-43
2023/02/02 06:23:33;;;;;;;3.47;0.68;;;;;;;8.45;100.00;101594.94;5003775;28;20042;-44
2023/02/02 06:26:02;;;;;;;2.20;0.60;;;;;;;8.46;100.00;101581.94;5020860;28;20107;-44
2023/02/02 06:28:31;;;;;;;4.35;1.83;;;;;;;8.47;100.00;101589.91;5016102;28;20077;-43
2023/02/02 06:31:06;;;;;;;2.03;0.57;;;;;;;8.49;100.00;101589.63;5012270;28;20145;-46
2023/02/02 06:33:33;;;;;;;2.00;0.77;;;;;;;8.47;100.00;101606.47;5016022;28;20483;-46
2023/02/02 06:36:01;;;;;;;0.60;0.30;;;;;;;8.47;100.00;101602.91;5018648;28;20101;-44
2023/02/02 06:38:28;;;;;;;1.63;0.60;;;;;;;8.48;100.00;101582.44;5011026;28;20053;-44
2023/02/02 06:40:58;;;;;;;2.85;0.60;;;;;;;8.50;100.00;101588.47;5022421;28;20057;-43
2023/02/02 06:43:27;;;;;;;2.72;0.70;;;;;;;8.50;100.00;101599.50;4998880;28;20065;-45
2023/02/02 06:45:56;;;;;;;2.17;0.35;;;;;;;8.47;100.00;101600.94;5011810;28;20260;-48
2023/02/02 06:48:24;;;;;;;3.20;0.88;;;;;;;8.45;100.00;101596.88;5011998;28;20056;-43
2023/02/02 06:50:52;;;;;;;1.52;0.40;;;;;;;8.41;100.00;101598.63;5011233;28;20534;-43
2023/02/02 06:53:21;;;;;;;1.23;0.30;;;;;;;8.39;100.00;101596.16;5010976;28;20093;-45
2023/02/02 06:55:57;;;;;;;3.95;0.70;;;;;;;8.37;100.00;101595.66;5005450;28;20104;-43
2023/02/02 06:58:24;;;;;;;2.55;0.40;;;;;;;8.36;100.00;101607.03;5000826;28;20100;-43
2023/02/02 07:00:51;;;;;;;2.47;0.52;;;;;;;8.33;100.00;101600.19;5010025;28;20129;-43
2023/02/02 07:03:20;;;;;;;3.05;1.05;;;;;;;8.33;100.00;101600.19;5005841;28;20185;-45
2023/02/02 07:05:50;;;;;;;2.80;0.43;;;;;;;8.34;100.00;101603.75;5009489;28;20046;-44
2023/02/02 07:08:16;;;;;;;2.58;0.50;;;;;;;8.33;100.00;101608.47;5002360;28;20064;-43
2023/02/02 07:10:43;;;;;;;1.65;0.40;;;;;;;8.32;100.00;101606.00;5010556;28;20099;-43
2023/02/02 07:13:30;;;;;;;1.88;0.40;;;;;;;8.32;100.00;101608.75;5005871;28;20057;-45
2023/02/02 07:15:57;;;;;;;2.88;0.70;;;;;;;8.28;100.00;101600.28;5002254;28;20064;-44
2023/02/02 07:18:24;;;;;;;1.02;0.70;;;;;;;8.26;100.00;101598.94;4999396;28;20046;-43
2023/02/02 07:20:50;;;;;;;2.15;0.50;;;;;;;8.25;100.00;101602.81;5000772;28;20484;-42
2023/02/02 07:23:17;;;;;;;1.88;0.43;;;;;;;8.23;100.00;101592.09;5018256;28;20152;-44
2023/02/02 07:25:44;;;;;;;1.15;0.82;;;;;;;8.23;100.00;101594.03;4998972;28;20503;-50
2023/02/02 07:28:10;;;;;;;0.60;0.40;;;;;;;8.20;100.00;101602.94;4999975;28;20503;-44
2023/02/02 07:30:37;;;;;;;6.32;0.93;;;;;;;8.17;100.00;101593.31;5000973;28;20049;-47
2023/02/02 07:33:04;;;;;;;1.80;0.57;;;;;;;8.19;100.00;101601.28;5010866;28;20050;-42
2023/02/02 07:35:30;;;;;;;2.15;0.50;;;;;;;8.19;100.00;101595.75;5021665;28;20038;-43
2023/02/02 07:37:57;;;;;;;2.28;0.45;;;;;;;8.17;100.00;101593.31;5007699;28;20046;-42
2023/02/02 07:40:24;;;;;;;6.93;0.65;;;;;;;8.19;100.00;101590.25;5011188;28;20041;-43
2023/02/02 07:42:51;;;;;;;1.13;0.50;;;;;;;8.18;100.00;101580.34;5010453;28;20050;-42
2023/02/02 07:45:18;;;;;;;4.68;0.85;;;;;;;8.18;100.00;101578.38;5008638;28;20073;-43
2023/02/02 07:48:01;;;;;;;2.72;0.75;;;;;;;8.19;100.00;101573.69;5010520;28;20041;-42
2023/02/02 07:50:29;;;;;;;7.75;0.80;;;;;;;8.21;100.00;101582.47;5010509;28;20068;-42
2023/02/02 07:52:59;;;;;;;1.40;0.82;;;;;;;8.24;100.00;101579.09;5009092;28;20071;-43
2023/02/02 07:55:26;;;;;;;2.90;0.80;;;;;;;8.26;100.00;101583.19;5010732;28;20145;-45
2023/02/02 07:57:54;;;;;;;4.45;0.55;;;;;;;8.27;100.00;101592.31;5011088;28;20076;-43
2023/02/02 08:00:21;;;;;;;4.95;0.65;;;;;;;8.25;100.00;101581.56;5010050;28;20104;-47
2023/02/02 08:02:48;;;;;;;2.72;0.70;;;;;;;8.24;100.00;101581.84;4997131;28;20065;-43
2023/02/02 08:05:16;;;;;;;2.90;1.13;;;;;;;8.20;100.00;101589.13;5010500;28;20124;-52
2023/02/02 08:07:47;;;;;;;1.00;0.60;;;;;;;8.19;100.00;101588.31;5011441;28;20049;-43
2023/02/02 08:10:13;;;;;;;3.50;1.10;;;;;;;8.19;100.00;101590.25;5002192;28;20052;-44
2023/02/02 08:12:40;;;;;;;3.97;1.00;;;;;;;8.19;100.00;101593.00;4999848;28;20209;-43
2023/02/02 08:15:07;;;;;;;3.33;0.50;;;;;;;8.20;100.00;101591.88;5003678;28;20049;-44
2023/02/02 08:17:34;;;;;;;4.13;0.73;;;;;;;8.18;100.00;101605.97;5005862;28;20045;-43
2023/02/02 08:20:01;;;;;;;5.05;0.85;;;;;;;8.21;100.00;101599.03;5004765;28;20136;-43
2023/02/02 08:22:27;;;;;;;8.38;1.27;;;;;;;8.22;100.00;101604.25;4999114;28;20100;-43
2023/02/02 08:24:54;;;;;;;4.15;0.80;;;;;;;8.23;100.00;101616.94;5005477;28;20053;-47
2023/02/02 08:27:21;;;;;;;4.80;0.82;;;;;;;8.23;100.00;101594.03;5007232;28;20367;-42
2023/02/02 08:29:47;;;;;;;2.67;0.60;;;;;;;8.20;100.00;101589.97;5007076;28;20046;-42
2023/02/02 08:32:14;;;;;;;3.80;0.80;;;;;;;8.20;100.00;101597.41;5004909;28;20060;-43
2023/02/02 08:34:41;;;;;;;3.78;0.68;;;;;;;8.21;100.00;101599.03;5002565;28;20481;-42
2023/02/02 08:37:08;;;;;;;4.78;1.73;;;;;;;8.23;100.00;101599.56;5001843;28;20073;-42
2023/02/02 08:39:35;;;;;;;1.60;0.40;;;;;;;8.25;100.00;101602.81;5004512;28;20044;-43
2023/02/02 08:42:02;;;;;;;2.22;0.50;;;;;;;8.27;100.00;101604.16;5004677;28;20042;-43
2023/02/02 08:44:28;;;;;;;4.00;1.00;;;;;;;8.32;100.00;101606.00;5000831;28;20046;-45
2023/02/02 08:47:15;;;;;;;5.32;1.17;;;;;;;8.36;100.00;101607.03;5008520;28;20448;-47
2023/02/02 08:49:43;;;;;;;3.05;0.45;;;;;;;8.41;100.00;101606.91;5007168;28;20038;-42
2023/02/02 08:52:10;;;;;;;2.38;0.73;;;;;;;8.44;100.00;101607.13;5009071;28;20135;-42
2023/02/02 08:54:37;;;;;;;6.07;1.30;;;;;;;8.49;100.00;101603.41;5003214;28;20053;-43
2023/02/02 08:57:03;;;;;;;3.08;1.50;;;;;;;8.52;100.00;101622.91;4988681;28;20046;-45
2023/02/02 08:59:30;;;;;;;3.55;0.95;;;;;;;8.55;100.00;101618.75;5000986;28;20099;-44
2023/02/02 09:01:57;;;;;;;5.90;1.42;;;;;;;8.56;100.00;101618.41;5005536;28;20168;-43
2023/02/02 09:04:23;;;;;;;4.13;1.02;;;;;;;8.59;100.00;101625.25;5001650;28;20050;-43
2023/02/02 09:06:50;;;;;;;1.75;0.80;;;;;;;8.62;100.00;101627.41;5006082;28;20064;-43
2023/02/02 09:09:17;;;;;;;6.53;1.17;;;;;;;8.63;100.00;101625.47;4999650;28;20076;-43
2023/02/02 09:11:43;;;;;;;5.72;1.23;;;;;;;8.63;100.00;101629.03;5002787;28;20052;-47
2023/02/02 09:14:12;;;;;;;2.47;0.57;;;;;;;8.64;100.00;101630.66;5004217;28;20479;-47
2023/02/02 09:16:39;;;;;;;4.47;0.77;;;;;;;8.62;100.00;101641.22;5004770;28;20042;-43
2023/02/02 09:19:06;;;;;;;2.53;0.65;;;;;;;8.61;100.00;101636.81;5003945;28;20073;-45
2023/02/02 09:21:36;;;;;;;3.67;1.23;;;;;;;8.60;100.00;101639.88;5004969;28;20050;-43
2023/02/02 09:24:11;;;;;;;3.30;0.88;;;;;;;8.61;100.00;101635.97;5004141;28;20392;-42
2023/02/02 09:26:39;;;;;;;2.35;0.75;;;;;;;8.62;100.00;101626.59;4999958;28;20037;-43
2023/02/02 09:29:09;;;;;;;3.90;1.10;;;;;;;8.62;100.00;101627.41;5000960;28;20388;-43
2023/02/02 09:31:37;;;;;;;8.40;1.13;;;;;;;8.64;100.00;101633.41;5007999;28;20499;-43
2023/02/02 09:34:07;;;;;;;5.88;0.77;;;;;;;8.66;100.00;101633.91;5005884;28;20049;-43
2023/02/02 09:36:34;;;;;;;1.98;0.50;;;;;;;8.69;100.00;101641.59;5006053;28;20034;-41
2023/02/02 09:39:02;;;;;;;2.72;0.55;;;;;;;8.72;100.00;101642.91;5005144;28;20050;-43
2023/02/02 09:41:40;;;;;;;3.65;0.60;;;;;;;8.74;100.00;101644.22;5004554;28;20088;-43
2023/02/02 09:44:20;;;;;;;3.95;0.60;;;;;;;8.77;100.00;101649.13;5000200;28;20149;-46
2023/02/02 09:47:31;;;;;;;1.70;0.90;;;;;;;8.81;100.00;101652.91;5002753;28;20061;-45
2023/02/02 09:50:16;;;;;;;4.00;1.02;;;;;;;8.84;100.00;101634.91;4996338;28;20061;-43
2023/02/02 09:52:52;;;;;;;5.47;0.98;;;;;;;8.87;100.00;101642.56;5010481;28;20077;-44
2023/02/02 09:55:37;;;;;;;4.57;0.90;;;;;;;8.89;100.00;101652.19;5012542;28;20037;-43
2023/02/02 09:58:22;;;;;;;8.10;1.35;;;;;;;8.90;100.00;101662.09;5014627;28;20053;-43
2023/02/02 10:01:29;;;;;;;2.60;0.85;;;;;;;8.91;100.00;101649.91;5005880;28;20045;-44
2023/02/02 10:04:05;;;;;;;5.57;0.80;;;;;;;8.92;100.00;101659.03;5008112;28;20301;-43
2023/02/02 10:06:43;;;;;;;4.82;0.98;;;;;;;8.95;100.00;101664.72;5011952;28;20112;-43
2023/02/02 10:09:49;;;;;;;1.63;0.68;;;;;;;8.96;100.00;101658.06;5011212;28;20046;-43
2023/02/02 10:12:46;;;;;;;4.00;0.60;;;;;;;8.97;100.00;101665.25;5010858;28;20431;-45
2023/02/02 10:15:19;;;;;;;2.53;0.73;;;;;;;8.99;100.00;101664.91;5004533;28;20052;-44
2023/02/02 10:18:01;;;;;;;3.33;0.70;;;;;;;9.02;100.00;101665.13;5008386;28;20543;-43
2023/02/02 10:21:00;;;;;;;2.65;1.02;;;;;;;9.02;100.00;101662.38;5002833;28;20412;-44
2023/02/02 10:23:31;;;;;;;6.45;1.17;;;;;;;9.04;100.00;101684.13;5008409;28;20042;-43
2023/02/02 10:26:20;;;;;;;2.20;0.77;;;;;;;9.03;100.00;101682.50;5008308;28;20148;-43
2023/02/02 10:29:35;;;;;;;1.10;0.50;;;;;;;9.04;100.00;101684.13;5006024;28;20044;-46
2023/02/02 10:32:48;;;;;;;4.78;0.57;;;;;;;9.02;100.00;101670.66;4964077;28;20939;-43
2023/02/02 10:35:36;;;;;;;4.68;0.90;;;;;;;9.03;100.00;101676.97;5008755;28;20056;-43
2023/02/02 10:38:29;;;;;;;7.97;2.05;;;;;;;9.07;100.00;101683.50;5005597;28;20034;-43
2023/02/02 10:41:24;;;;;;;2.03;0.47;;;;;;;9.12;100.00;101673.16;5003330;28;20136;-43
2023/02/02 10:43:57;;;;;;;4.75;0.60;;;;;;;9.15;100.00;101691.06;4999283;28;20799;-43
2023/02/02 10:46:29;;;;;;;2.55;0.47;;;;;;;9.16;100.00;101696.25;5006302;28;20044;-44
2023/02/02 10:49:27;;;;;;;4.28;1.67;;;;;;;9.16;100.00;101687.97;5010655;28;20057;-43
2023/02/02 10:52:03;;;;;;;2.33;0.70;;;;;;;9.19;100.00;101681.00;4999269;28;20038;-43
2023/02/02 10:54:53;;;;;;;2.63;0.50;;;;;;;9.21;100.00;101689.00;5005486;28;20521;-43
2023/02/02 10:57:32;;;;;;;1.35;0.60;;;;;;;9.23;100.00;101697.78;5009505;28;20080;-46
2023/02/02 11:00:23;;;;;;;0.90;0.70;;;;;;;9.23;100.00;101689.50;5008992;28;20499;-44
2023/02/02 11:02:52;;;;;;;2.45;1.00;;;;;;;9.24;100.00;101688.38;5007017;28;20501;-48
2023/02/02 11:08:14;;;;;;;6.37;0.90;;;;;;;9.27;100.00;101687.72;4999328;28;20108;-48
2023/02/02 11:10:44;;;;;;;1.15;0.40;;;;;;;9.31;100.00;101683.22;5005673;28;20417;-43
2023/02/02 11:13:16;;;;;;;3.33;0.40;;;;;;;9.34;100.00;101694.47;5011009;28;20473;-44
2023/02/02 11:15:42;;;;;;;2.65;0.50;;;;;;;9.34;100.00;101666.00;5010819;28;20038;-43
2023/02/02 11:18:25;;;;;;;2.88;0.80;;;;;;;9.38;100.00;101676.13;5011661;28;20129;-44
2023/02/02 11:20:52;;;;;;;1.90;0.70;;;;;;;9.41;100.00;101683.78;5011879;28;20060;-45
2023/02/02 11:23:20;;;;;;;2.22;0.60;;;;;;;9.43;100.00;101686.22;5010882;28;20399;-43
2023/02/02 11:25:57;;;;;;;2.15;0.50;;;;;;;9.46;100.00;101680.06;5010620;28;20050;-43
2023/02/02 11:28:29;;;;;;;0.73;0.52;;;;;;;9.47;100.00;101678.94;5010710;28;20140;-45
2023/02/02 11:30:56;;;;;;;1.50;0.50;;;;;;;9.50;100.00;101675.56;5010648;28;20121;-43
2023/02/02 11:33:27;;;;;;;0.95;0.90;;;;;;;9.54;100.00;101676.53;5012842;28;20045;-44
2023/02/02 11:35:58;;;;;;;4.30;0.33;;;;;;;9.57;100.00;101675.91;5017997;28;20351;-44
2023/02/02 11:38:26;;;;;;;2.88;0.60;;;;;;;9.61;100.00;101669.44;5008023;28;20295;-44
2023/02/02 11:40:56;;;;;;;2.05;0.50;;;;;;;9.64;100.00;101666.03;5010329;28;20050;-45
2023/02/02 11:43:31;;;;;;;2.40;0.50;;;;;;;9.66;100.00;101680.34;5010139;28;20042;-44
2023/02/02 11:46:04;;;;;;;3.05;0.70;;;;;;;9.70;100.00;101677.78;5010216;28;20046;-43
2023/02/02 11:48:36;;;;;;;1.55;0.40;;;;;;;9.72;100.00;101683.81;5010668;28;20486;-43
2023/02/02 11:51:04;;;;;;;2.92;0.95;;;;;;;9.74;99.91;101682.34;5010481;28;20133;-44
2023/02/02 11:53:33;;;;;;;1.50;0.45;;;;;;;9.75;99.65;101695.06;5009244;28;20062;-44
2023/02/02 11:56:04;;;;;;;0.63;0.52;;;;;;;9.77;99.64;101675.38;5008723;28;20061;-44